createdAt,value
2022-10-05T00:00:27.258Z,19.08
2022-10-05T00:02:55.665Z,22.60
2022-10-05T00:05:34.131Z,18.95
2022-10-05T00:08:22.316Z,18.13
2022-10-05T00:10:49.824Z,26.90
2022-10-05T00:13:25.538Z,16.35
2022-10-05T00:16:17.392Z,18.55
2022-10-05T00:18:50.399Z,13.75
2022-10-05T00:21:26.433Z,18.98
2022-10-05T00:23:56.405Z,15.13
2022-10-05T00:26:25.925Z,28.90
2022-10-05T00:28:53.893Z,19.13
2022-10-05T00:31:23.850Z,14.00
2022-10-05T00:33:51.340Z,14.88
2022-10-05T00:36:18.593Z,15.35
2022-10-05T00:38:46.488Z,16.50
2022-10-05T00:41:20.790Z,14.60
2022-10-05T00:44:23.857Z,15.80
2022-10-05T00:47:21.499Z,19.58
2022-10-05T00:50:00.087Z,14.00
2022-10-05T00:52:40.934Z,14.35
2022-10-05T00:55:27.860Z,16.25
2022-10-05T00:58:02.510Z,16.25
2022-10-05T01:00:32.018Z,14.57
2022-10-05T01:03:06.089Z,23.73
2022-10-05T01:05:50.673Z,15.90
2022-10-05T01:08:48.113Z,16.95
2022-10-05T01:11:33.768Z,13.68
2022-10-05T01:14:15.820Z,15.20
2022-10-05T01:16:48.177Z,14.73
2022-10-05T01:19:33.186Z,12.50
2022-10-05T01:22:09.258Z,13.95
2022-10-05T01:25:06.405Z,12.10
2022-10-05T01:27:47.609Z,24.90
2022-10-05T01:30:20.252Z,14.50
2022-10-05T01:33:08.399Z,19.55
2022-10-05T01:35:56.290Z,12.05
2022-10-05T01:38:38.906Z,12.98
2022-10-05T01:41:42.491Z,13.27
2022-10-05T01:44:20.208Z,11.55
2022-10-05T01:47:03.598Z,14.88
2022-10-05T01:49:32.945Z,14.20
2022-10-05T01:52:08.843Z,10.95
2022-10-05T01:54:46.785Z,11.55
2022-10-05T01:57:48.282Z,12.82
2022-10-05T02:00:17.883Z,12.15
2022-10-05T02:02:53.354Z,15.05
2022-10-05T02:05:24.781Z,14.15
2022-10-05T02:08:08.154Z,12.80
2022-10-05T02:10:43.576Z,14.63
2022-10-05T02:13:22.705Z,12.27
2022-10-05T02:15:58.589Z,14.45
2022-10-05T02:18:32.594Z,15.18
2022-10-05T02:21:00.693Z,11.00
2022-10-05T02:23:33.085Z,11.48
2022-10-05T02:26:01.725Z,11.13
2022-10-05T02:28:31.224Z,11.60
2022-10-05T02:31:28.589Z,9.85
2022-10-05T02:34:20.134Z,11.65
2022-10-05T02:36:58.341Z,12.65
2022-10-05T02:40:03.484Z,12.15
2022-10-05T02:42:41.873Z,12.27
2022-10-05T02:45:36.506Z,10.02
2022-10-05T02:48:20.602Z,11.65
2022-10-05T02:51:11.967Z,12.77
2022-10-05T02:53:56.634Z,14.02
2022-10-05T02:56:27.931Z,11.82
2022-10-05T02:59:04.230Z,11.55
2022-10-05T03:01:51.677Z,13.30
2022-10-05T03:04:37.894Z,12.98
2022-10-05T03:07:32.866Z,14.77
2022-10-05T03:10:14.760Z,23.75
2022-10-05T03:13:02.743Z,14.95
2022-10-05T03:15:56.910Z,14.18
2022-10-05T03:18:57.629Z,11.32
2022-10-05T03:21:51.153Z,17.98
2022-10-05T03:24:23.699Z,15.32
2022-10-05T03:27:05.004Z,12.88
2022-10-05T03:29:44.130Z,34.45
2022-10-05T03:32:26.051Z,38.67
2022-10-05T03:35:20.173Z,35.30
2022-10-05T03:38:28.204Z,46.90
2022-10-05T03:41:17.665Z,44.08
2022-10-05T03:44:26.413Z,40.40
2022-10-05T03:47:17.856Z,47.17
2022-10-05T03:49:59.480Z,22.80
2022-10-05T03:52:50.160Z,32.47
2022-10-05T03:55:24.342Z,25.98
2022-10-05T03:57:54.476Z,18.25
2022-10-05T04:00:26.840Z,20.40
2022-10-05T04:03:00.379Z,21.15
2022-10-05T04:05:45.609Z,14.90
2022-10-05T04:08:18.250Z,24.35
2022-10-05T04:10:52.701Z,22.42
2022-10-05T04:13:36.557Z,35.13
2022-10-05T04:16:14.834Z,17.10
2022-10-05T04:18:45.989Z,25.75
2022-10-05T04:21:24.023Z,20.52
2022-10-05T04:24:11.724Z,19.40
2022-10-05T04:26:38.314Z,18.35
2022-10-05T04:29:23.801Z,21.15
2022-10-05T04:32:15.453Z,22.00
2022-10-05T04:35:13.279Z,22.00
2022-10-05T04:38:23.995Z,15.93
2022-10-05T04:41:16.159Z,18.13
2022-10-05T04:44:30.621Z,16.10
2022-10-05T04:47:38.653Z,18.98
2022-10-05T04:50:17.473Z,27.60
2022-10-05T04:53:09.150Z,15.40
2022-10-05T04:56:07.009Z,33.03
2022-10-05T04:58:41.402Z,35.58
2022-10-05T05:01:47.529Z,22.55
2022-10-05T05:04:29.522Z,16.67
2022-10-05T05:07:33.338Z,14.90
2022-10-05T05:10:07.930Z,15.98
2022-10-05T05:13:11.647Z,13.68
2022-10-05T05:16:02.156Z,15.60
2022-10-05T05:18:57.228Z,15.48
2022-10-05T05:21:49.655Z,17.65
2022-10-05T05:24:40.509Z,19.73
2022-10-05T05:27:30.333Z,20.65
2022-10-05T05:30:19.939Z,16.00
2022-10-05T05:33:14.322Z,18.40
2022-10-05T05:35:49.987Z,15.95
2022-10-05T05:38:36.951Z,13.80
2022-10-05T05:41:17.013Z,12.68
2022-10-05T05:44:02.284Z,12.32
2022-10-05T05:47:01.652Z,13.50
2022-10-05T05:49:37.765Z,13.90
2022-10-05T05:52:25.515Z,14.10
2022-10-05T05:55:01.011Z,13.80
2022-10-05T05:57:38.617Z,13.20
2022-10-05T06:00:18.441Z,15.02
2022-10-05T06:03:09.494Z,13.18
2022-10-05T06:05:47.447Z,13.35
2022-10-05T06:08:29.342Z,16.92
2022-10-05T06:11:01.497Z,14.35
2022-10-05T06:13:33.351Z,15.82
2022-10-05T06:16:04.759Z,16.30
2022-10-05T06:18:33.030Z,17.70
2022-10-05T06:21:06.751Z,23.67
2022-10-05T06:23:58.577Z,16.95
2022-10-05T06:26:50.473Z,16.88
2022-10-05T06:29:22.739Z,17.55
2022-10-05T06:32:05.632Z,17.20
2022-10-05T06:34:41.982Z,19.45
2022-10-05T06:37:19.338Z,17.60
2022-10-05T06:40:13.064Z,17.80
2022-10-05T06:42:58.446Z,19.33
2022-10-05T06:45:39.729Z,20.07
2022-10-05T06:48:50.741Z,22.50
2022-10-05T06:51:48.035Z,19.10
2022-10-05T06:54:30.860Z,17.77
2022-10-05T06:57:20.827Z,18.27
2022-10-05T07:00:03.076Z,22.63
2022-10-05T07:02:41.230Z,18.00
2022-10-05T07:05:35.728Z,20.43
2022-10-05T07:08:18.012Z,21.17
2022-10-05T07:10:57.768Z,23.38
2022-10-05T07:14:03.774Z,17.05
2022-10-05T07:16:49.993Z,18.95
2022-10-05T07:19:19.841Z,14.80
2022-10-05T07:21:58.067Z,19.23
2022-10-05T07:24:32.590Z,16.80
2022-10-05T07:27:16.377Z,18.80
2022-10-05T07:29:58.962Z,17.77
2022-10-05T07:32:36.445Z,24.70
2022-10-05T07:35:41.774Z,16.53
2022-10-05T07:38:27.374Z,16.38
2022-10-05T07:41:04.236Z,16.00
2022-10-05T07:44:02.848Z,18.10
2022-10-05T07:46:29.896Z,19.23
2022-10-05T07:49:05.905Z,16.90
2022-10-05T07:51:40.877Z,19.77
2022-10-05T07:54:24.162Z,18.30
2022-10-05T07:57:34.941Z,21.05
2022-10-05T08:00:14.498Z,22.20
2022-10-05T08:02:45.834Z,19.45
2022-10-05T08:05:23.523Z,21.10
2022-10-05T08:07:55.672Z,20.17
2022-10-05T08:10:41.362Z,17.80
2022-10-05T08:13:19.717Z,20.23
2022-10-05T08:15:51.966Z,24.30
2022-10-05T08:18:39.839Z,19.70
2022-10-05T08:21:11.795Z,20.13
2022-10-05T08:24:04.003Z,18.57
2022-10-05T08:26:48.829Z,20.03
2022-10-05T08:29:36.215Z,16.00
2022-10-05T08:32:10.196Z,19.53
2022-10-05T08:34:45.731Z,16.70
2022-10-05T08:37:23.905Z,15.80
2022-10-05T08:40:21.417Z,17.50
2022-10-05T08:43:09.548Z,17.87
2022-10-05T08:46:07.334Z,13.77
2022-10-05T08:48:39.015Z,16.73
2022-10-05T08:51:32.800Z,15.10
2022-10-05T08:54:41.408Z,17.48
2022-10-05T08:57:07.950Z,16.90
2022-10-05T09:00:03.476Z,15.45
2022-10-05T09:03:04.975Z,13.83
2022-10-05T09:06:02.319Z,12.67
2022-10-05T09:08:53.678Z,12.47
2022-10-05T09:12:05.317Z,13.67
2022-10-05T09:15:23.815Z,17.50
2022-10-05T09:18:18.703Z,12.60
2022-10-05T09:20:54.122Z,13.00
2022-10-05T09:23:39.606Z,12.43
2022-10-05T09:26:43.696Z,9.90
2022-10-05T09:29:53.823Z,9.93
2022-10-05T09:32:52.020Z,8.95
2022-10-05T09:35:45.141Z,11.33
2022-10-05T09:38:28.295Z,9.00
2022-10-05T09:41:10.097Z,9.82
2022-10-05T09:44:06.582Z,10.50
2022-10-05T09:46:33.199Z,10.53
2022-10-05T09:49:29.550Z,9.80
2022-10-05T09:52:19.065Z,9.23
2022-10-05T09:55:20.405Z,10.23
2022-10-05T09:58:28.385Z,9.55
2022-10-05T10:01:09.594Z,9.97
2022-10-05T10:04:12.762Z,11.20
2022-10-05T10:06:59.334Z,15.83
2022-10-05T10:10:06.501Z,10.53
2022-10-05T10:12:56.886Z,10.27
2022-10-05T10:15:34.700Z,10.10
2022-10-05T10:18:16.191Z,9.73
2022-10-05T10:21:10.639Z,9.60
2022-10-05T10:24:00.063Z,9.13
2022-10-05T10:26:39.577Z,9.20
2022-10-05T10:29:33.671Z,10.30
2022-10-05T10:32:34.032Z,13.27
2022-10-05T10:35:31.807Z,11.43
2022-10-05T10:38:20.134Z,10.20
2022-10-05T10:41:05.483Z,13.13
2022-10-05T10:44:02.521Z,10.50
2022-10-05T10:46:39.514Z,9.60
2022-10-05T10:49:48.982Z,12.30
2022-10-05T10:52:39.855Z,9.70
2022-10-05T10:55:40.965Z,10.00
2022-10-05T11:01:25.120Z,11.35
2022-10-05T11:04:13.014Z,12.83
2022-10-05T11:07:03.744Z,10.27
2022-10-05T11:10:13.913Z,10.40
2022-10-05T11:13:21.982Z,10.30
2022-10-05T11:15:48.584Z,11.00
2022-10-05T11:18:34.695Z,11.90
2022-10-05T11:21:26.344Z,10.30
2022-10-05T11:24:19.314Z,9.27
2022-10-05T11:27:30.018Z,9.80
2022-10-05T11:30:05.811Z,11.90
2022-10-05T11:32:38.418Z,20.50
2022-10-05T11:35:18.259Z,10.93
2022-10-05T11:38:08.784Z,12.53
2022-10-05T11:40:52.176Z,9.30
2022-10-05T11:43:45.550Z,9.43
2022-10-05T11:46:31.069Z,9.53
2022-10-05T11:49:19.013Z,9.53
2022-10-05T11:52:01.166Z,11.82
2022-10-05T11:55:05.789Z,10.53
2022-10-05T11:57:37.617Z,10.03
2022-10-05T12:00:21.929Z,11.13
2022-10-05T12:02:56.154Z,18.40
2022-10-05T12:05:53.759Z,10.70
2022-10-05T12:08:52.647Z,12.23
2022-10-05T12:11:25.237Z,9.55
2022-10-05T12:14:04.864Z,9.80
2022-10-05T12:17:01.200Z,10.17
2022-10-05T12:19:41.988Z,14.00
2022-10-05T12:22:22.647Z,9.85
2022-10-05T12:25:01.543Z,11.35
2022-10-05T12:27:56.975Z,9.73
2022-10-05T12:30:51.645Z,10.53
2022-10-05T12:33:25.827Z,13.53
2022-10-05T12:36:07.760Z,11.30
2022-10-05T12:38:40.714Z,10.55
2022-10-05T12:41:25.469Z,10.87
2022-10-05T12:44:08.849Z,10.20
2022-10-05T12:47:04.271Z,9.90
2022-10-05T12:50:04.829Z,11.60
2022-10-05T12:52:37.972Z,10.40
2022-10-05T12:55:37.579Z,10.40
2022-10-05T12:58:38.613Z,10.73
2022-10-05T13:01:43.115Z,10.10
2022-10-05T13:04:38.319Z,10.07
2022-10-05T13:07:10.641Z,10.10
2022-10-05T13:09:45.905Z,10.53
2022-10-05T13:12:23.593Z,11.33
2022-10-05T13:15:08.074Z,10.13
2022-10-05T13:17:43.220Z,12.73
2022-10-05T13:20:25.120Z,10.10
2022-10-05T13:23:13.781Z,11.47
2022-10-05T13:26:03.250Z,10.50
2022-10-05T13:28:41.413Z,11.67
2022-10-05T13:31:28.627Z,11.57
2022-10-05T13:33:55.217Z,10.27
2022-10-05T13:36:35.773Z,11.50
2022-10-05T13:39:32.862Z,10.37
2022-10-05T13:42:09.339Z,10.60
2022-10-05T13:44:50.983Z,12.97
2022-10-05T13:47:48.544Z,10.80
2022-10-05T13:50:21.470Z,9.85
2022-10-05T13:53:04.566Z,10.00
2022-10-05T13:55:36.940Z,14.15
2022-10-05T13:58:26.065Z,12.53
2022-10-05T14:01:00.345Z,12.93
2022-10-05T14:03:36.865Z,11.17
2022-10-05T14:06:12.483Z,14.52
2022-10-05T14:08:52.959Z,14.73
2022-10-05T14:11:31.187Z,12.82
2022-10-05T14:14:10.150Z,11.43
2022-10-05T14:16:57.828Z,11.00
2022-10-05T14:19:34.378Z,12.57
2022-10-05T14:22:10.226Z,10.97
2022-10-05T14:24:46.945Z,14.70
2022-10-05T14:27:25.557Z,10.73
2022-10-05T14:29:58.452Z,11.20
2022-10-05T14:32:27.237Z,11.97
2022-10-05T14:35:10.041Z,11.17
2022-10-05T14:37:53.693Z,10.40
2022-10-05T14:40:28.141Z,9.80
2022-10-05T14:42:55.295Z,11.70
2022-10-05T14:45:25.113Z,13.13
2022-10-05T14:48:02.536Z,12.77
2022-10-05T14:50:31.274Z,12.55
2022-10-05T14:53:11.799Z,15.70
2022-10-05T14:55:47.174Z,10.50
2022-10-05T14:58:55.566Z,11.67
2022-10-05T15:01:35.808Z,18.67
2022-10-05T15:04:20.503Z,10.90
2022-10-05T15:06:55.204Z,11.63
2022-10-05T15:09:37.806Z,11.17
2022-10-05T15:12:04.625Z,11.10
2022-10-05T15:14:39.982Z,12.40
2022-10-05T15:17:43.121Z,12.60
2022-10-05T15:20:37.510Z,15.67
2022-10-05T15:23:40.031Z,11.90
2022-10-05T15:26:25.125Z,9.57
2022-10-05T15:28:56.228Z,13.73
2022-10-05T15:32:03.334Z,10.20
2022-10-05T15:35:00.756Z,11.80
2022-10-05T15:37:33.279Z,11.60
2022-10-05T15:40:16.111Z,10.27
2022-10-05T15:42:43.727Z,12.73
2022-10-05T15:45:37.449Z,11.63
2022-10-05T15:48:22.223Z,10.63
2022-10-05T15:51:15.247Z,11.70
2022-10-05T15:54:23.006Z,10.47
2022-10-05T15:57:07.983Z,11.70
2022-10-05T16:00:11.655Z,12.03
2022-10-05T16:02:44.525Z,10.83
2022-10-05T16:06:02.546Z,11.97
2022-10-05T16:08:50.467Z,15.90
2022-10-05T16:11:29.135Z,14.87
2022-10-05T16:14:27.946Z,12.32
2022-10-05T16:17:06.953Z,10.97
2022-10-05T16:20:06.994Z,10.47
2022-10-05T16:22:51.799Z,10.53
2022-10-05T16:25:25.263Z,11.73
2022-10-05T16:28:10.713Z,12.30
2022-10-05T16:30:58.745Z,21.10
2022-10-05T16:33:46.998Z,23.60
2022-10-05T16:36:23.055Z,31.10
2022-10-05T16:39:00.558Z,27.27
2022-10-05T16:41:59.214Z,19.60
2022-10-05T16:44:44.879Z,12.10
2022-10-05T16:47:29.005Z,23.90
2022-10-05T16:50:01.848Z,14.50
2022-10-05T16:52:29.836Z,13.50
2022-10-05T16:54:59.324Z,12.10
2022-10-05T16:57:38.522Z,12.73
2022-10-05T17:00:10.836Z,17.83
2022-10-05T17:02:56.572Z,15.73
2022-10-05T17:05:51.222Z,12.20
2022-10-05T17:08:45.432Z,18.33
2022-10-05T17:11:32.761Z,14.60
2022-10-05T17:14:22.032Z,14.80
2022-10-05T17:17:20.625Z,18.03
2022-10-05T17:19:50.009Z,17.37
2022-10-05T17:22:31.852Z,14.17
2022-10-05T17:25:24.134Z,20.37
2022-10-05T17:27:54.752Z,17.30
2022-10-05T17:30:38.725Z,16.40
2022-10-05T17:33:29.457Z,16.27
2022-10-05T17:36:06.490Z,19.63
2022-10-05T17:38:34.191Z,19.40
2022-10-05T17:41:00.935Z,21.43
2022-10-05T17:43:34.641Z,22.13
2022-10-05T17:46:04.008Z,13.63
2022-10-05T17:48:54.122Z,19.67
2022-10-05T17:51:48.282Z,18.20
2022-10-05T17:54:41.850Z,17.53
2022-10-05T17:57:08.453Z,19.77
2022-10-05T17:59:46.924Z,16.30
2022-10-05T18:02:19.736Z,17.02
2022-10-05T18:05:12.413Z,20.17
2022-10-05T18:07:40.287Z,13.97
2022-10-05T18:10:11.487Z,20.60
2022-10-05T18:13:10.858Z,16.85
2022-10-05T18:15:46.480Z,17.80
2022-10-05T18:18:36.470Z,29.50
2022-10-05T18:21:14.992Z,15.32
2022-10-05T18:23:47.781Z,18.40
2022-10-05T18:26:37.508Z,14.57
2022-10-05T18:29:53.993Z,21.83
2022-10-05T18:32:49.233Z,26.83
2022-10-05T18:35:29.134Z,36.97
2022-10-05T18:38:33.049Z,23.53
2022-10-05T18:41:20.282Z,26.83
2022-10-05T18:44:13.364Z,27.90
2022-10-05T18:46:48.953Z,20.53
2022-10-05T18:49:47.201Z,19.77
2022-10-05T18:52:40.906Z,15.93
2022-10-05T18:55:25.469Z,18.90
2022-10-05T18:58:10.052Z,14.27
2022-10-05T19:01:14.395Z,16.93
2022-10-05T19:04:00.694Z,20.77
2022-10-05T19:06:31.067Z,20.27
2022-10-05T19:09:06.579Z,19.10
2022-10-05T19:12:00.387Z,18.90
2022-10-05T19:14:54.259Z,25.95
2022-10-05T19:17:26.102Z,16.53
2022-10-05T19:20:03.992Z,15.98
2022-10-05T19:22:48.740Z,14.90
2022-10-05T19:25:38.678Z,13.60
2022-10-05T19:28:34.163Z,16.30
2022-10-05T19:31:23.424Z,13.77
2022-10-05T19:34:35.027Z,25.67
2022-10-05T19:37:15.541Z,20.53
2022-10-05T19:39:45.231Z,13.70
2022-10-05T19:42:30.723Z,16.50
2022-10-05T19:45:08.948Z,11.40
2022-10-05T19:47:51.882Z,14.13
2022-10-05T19:50:23.450Z,17.00
2022-10-05T19:52:57.072Z,14.63
2022-10-05T19:55:34.522Z,15.30
2022-10-05T19:58:01.245Z,12.40
2022-10-05T20:00:31.238Z,14.23
2022-10-05T20:03:15.612Z,9.95
2022-10-05T20:05:42.515Z,15.20
2022-10-05T20:08:17.250Z,12.30
2022-10-05T20:10:44.540Z,14.40
2022-10-05T20:13:22.662Z,11.15
2022-10-05T20:16:26.154Z,12.83
2022-10-05T20:19:11.505Z,11.90
2022-10-05T20:21:56.740Z,10.83
2022-10-05T20:24:26.017Z,15.73
2022-10-05T20:27:02.720Z,16.63
2022-10-05T20:29:30.678Z,12.07
2022-10-05T20:31:57.581Z,13.53
2022-10-05T20:34:24.717Z,15.00
2022-10-05T20:36:51.891Z,11.27
2022-10-05T20:39:19.141Z,14.63
2022-10-05T20:41:45.818Z,11.77
2022-10-05T20:44:13.005Z,13.00
2022-10-05T20:46:41.609Z,10.77
2022-10-05T20:49:12.548Z,9.40
2022-10-05T20:51:40.110Z,12.87
2022-10-05T20:54:09.635Z,14.40
2022-10-05T20:56:36.307Z,14.77
2022-10-05T20:59:04.001Z,12.52
2022-10-05T21:01:31.886Z,12.63
2022-10-05T21:03:59.734Z,10.77
2022-10-05T21:06:29.319Z,13.40
2022-10-05T21:08:56.062Z,12.90
2022-10-05T21:11:23.898Z,13.53
2022-10-05T21:13:51.344Z,13.57
2022-10-05T21:16:18.840Z,10.52
2022-10-05T21:18:47.475Z,10.50
2022-10-05T21:21:18.045Z,12.03
2022-10-05T21:23:45.643Z,9.60
2022-10-05T21:26:13.049Z,14.30
2022-10-05T21:28:39.968Z,11.73
2022-10-05T21:31:08.348Z,12.90
2022-10-05T21:33:35.937Z,12.00
2022-10-05T21:36:03.264Z,9.52
2022-10-05T21:38:30.258Z,14.40
2022-10-05T21:40:57.204Z,11.50
2022-10-05T21:43:24.464Z,14.33
2022-10-05T21:45:51.577Z,10.43
2022-10-05T21:48:18.599Z,13.00
2022-10-05T21:50:45.851Z,9.70
2022-10-05T21:53:14.473Z,12.10
2022-10-05T21:55:43.857Z,16.77
2022-10-05T21:58:12.235Z,12.50
2022-10-05T22:00:39.130Z,12.60
2022-10-05T22:03:06.183Z,10.50
2022-10-05T22:05:33.013Z,12.60
2022-10-05T22:07:59.690Z,12.20
2022-10-05T22:10:26.946Z,10.37
2022-10-05T22:12:59.890Z,8.90
2022-10-05T22:15:27.303Z,12.00
2022-10-05T22:17:54.314Z,10.40
2022-10-05T22:20:21.788Z,12.50
2022-10-05T22:22:48.458Z,13.48
2022-10-05T22:25:15.846Z,10.17
2022-10-05T22:27:43.131Z,10.03
2022-10-05T22:30:10.207Z,10.70
2022-10-05T22:32:36.797Z,14.40
2022-10-05T22:35:06.790Z,14.80
2022-10-05T22:37:37.922Z,9.83
2022-10-05T22:40:08.707Z,12.87
2022-10-05T22:42:35.352Z,10.53
2022-10-05T22:45:02.099Z,14.67
2022-10-05T22:47:28.727Z,9.90
2022-10-05T22:49:55.327Z,10.00
2022-10-05T22:52:21.993Z,10.60
2022-10-05T22:54:48.717Z,11.93
2022-10-05T22:57:15.526Z,10.43
2022-10-05T22:59:42.154Z,12.73
2022-10-05T23:02:08.778Z,10.07
2022-10-05T23:04:35.454Z,12.03
2022-10-05T23:07:02.092Z,12.33
2022-10-05T23:09:28.651Z,12.73
2022-10-05T23:11:55.243Z,9.27
2022-10-05T23:14:21.886Z,11.17
2022-10-05T23:16:48.610Z,12.23
2022-10-05T23:19:15.304Z,11.23
2022-10-05T23:21:41.973Z,13.73
2022-10-05T23:24:08.750Z,10.43
2022-10-05T23:26:35.515Z,10.73
2022-10-05T23:29:02.135Z,10.20
2022-10-05T23:31:30.764Z,13.10
2022-10-05T23:33:57.639Z,12.37
2022-10-05T23:36:27.782Z,13.10
2022-10-05T23:38:54.421Z,14.03
2022-10-05T23:41:21.180Z,8.73
2022-10-05T23:43:48.040Z,8.20
2022-10-05T23:46:15.954Z,9.43
2022-10-05T23:48:44.053Z,11.63
2022-10-05T23:51:13.743Z,11.10
2022-10-05T23:53:40.336Z,11.87
2022-10-05T23:56:07.474Z,9.25
2022-10-05T23:58:34.290Z,13.38
